createdAt,value
2017-08-26T00:02:19.992Z,16.10
2017-08-26T00:04:48.948Z,16.20
2017-08-26T00:07:18.146Z,16.20
2017-08-26T00:09:47.086Z,16.30
2017-08-26T00:12:16.252Z,16.30
2017-08-26T00:14:45.202Z,16.30
2017-08-26T00:17:14.221Z,16.30
2017-08-26T00:19:44.183Z,16.20
2017-08-26T00:22:13.574Z,16.20
2017-08-26T00:24:42.552Z,16.20
2017-08-26T00:27:11.514Z,16.20
2017-08-26T00:29:40.513Z,16.20
2017-08-26T00:32:09.501Z,16.20
2017-08-26T00:34:38.447Z,16.20
2017-08-26T00:37:07.428Z,16.20
2017-08-26T00:39:36.408Z,16.10
2017-08-26T00:42:05.450Z,16.10
2017-08-26T00:44:34.446Z,16.10
2017-08-26T00:47:04.593Z,16.00
2017-08-26T00:49:34.330Z,16.10
2017-08-26T00:52:03.289Z,16.10
2017-08-26T00:54:32.240Z,16.00
2017-08-26T00:57:01.208Z,16.00
2017-08-26T00:59:30.437Z,16.10
2017-08-26T01:01:59.467Z,16.10
2017-08-26T01:04:28.423Z,16.00
2017-08-26T01:07:03.190Z,15.90
2017-08-26T01:09:32.138Z,16.00
2017-08-26T01:12:01.103Z,15.90
2017-08-26T01:14:30.052Z,15.90
2017-08-26T01:16:59.786Z,15.60
2017-08-26T01:19:28.731Z,15.60
2017-08-26T01:21:58.562Z,15.70
2017-08-26T01:24:27.506Z,15.70
2017-08-26T01:26:56.551Z,15.70
2017-08-26T01:29:26.173Z,15.80
2017-08-26T01:31:55.160Z,15.90
2017-08-26T01:34:24.872Z,15.80
2017-08-26T01:36:54.061Z,15.80
2017-08-26T01:39:23.073Z,15.90
2017-08-26T01:41:52.048Z,16.00
2017-08-26T01:44:21.217Z,16.00
2017-08-26T01:46:50.196Z,16.10
2017-08-26T01:49:19.189Z,16.00
2017-08-26T01:51:51.228Z,16.00
2017-08-26T01:54:20.204Z,16.10
2017-08-26T01:56:49.181Z,16.10
2017-08-26T01:59:18.150Z,16.10
2017-08-26T02:01:47.137Z,16.10
2017-08-26T02:04:16.105Z,16.00
2017-08-26T02:06:45.107Z,16.10
2017-08-26T02:09:14.070Z,16.20
2017-08-26T02:11:43.092Z,16.20
2017-08-26T02:14:12.081Z,16.30
2017-08-26T02:16:41.093Z,16.20
2017-08-26T02:19:10.083Z,16.20
2017-08-26T02:21:39.090Z,16.20
2017-08-26T02:24:08.119Z,16.20
2017-08-26T02:26:37.324Z,16.10
2017-08-26T02:29:06.338Z,16.10
2017-08-26T02:31:35.406Z,16.00
2017-08-26T02:34:04.382Z,16.00
2017-08-26T02:36:33.383Z,15.90
2017-08-26T02:39:02.555Z,15.70
2017-08-26T02:41:32.282Z,15.90
2017-08-26T02:44:01.255Z,15.90
2017-08-26T02:46:30.219Z,15.80
2017-08-26T02:48:59.190Z,15.80
2017-08-26T02:51:28.175Z,15.80
2017-08-26T02:53:57.148Z,15.80
2017-08-26T02:56:26.115Z,15.90
2017-08-26T02:58:55.111Z,15.80
2017-08-26T03:01:24.078Z,15.80
2017-08-26T03:03:53.075Z,15.70
2017-08-26T03:06:22.413Z,15.70
2017-08-26T03:08:51.436Z,15.60
2017-08-26T03:11:21.318Z,15.60
2017-08-26T03:13:50.318Z,15.60
2017-08-26T03:16:19.275Z,15.60
2017-08-26T03:18:48.265Z,15.60
2017-08-26T03:21:17.229Z,15.50
2017-08-26T03:23:46.213Z,15.50
2017-08-26T03:26:15.473Z,15.50
2017-08-26T03:28:44.459Z,15.40
2017-08-26T03:31:13.416Z,15.40
2017-08-26T03:33:42.594Z,15.50
2017-08-26T03:36:11.723Z,15.50
2017-08-26T03:38:40.681Z,15.40
2017-08-26T03:41:09.700Z,15.40
2017-08-26T03:43:38.683Z,15.40
2017-08-26T03:46:07.645Z,15.40
2017-08-26T03:48:36.628Z,15.30
2017-08-26T03:51:06.370Z,15.30
2017-08-26T03:53:35.384Z,15.30
2017-08-26T03:56:04.450Z,15.40
2017-08-26T03:58:33.421Z,15.30
2017-08-26T04:01:02.409Z,15.30
2017-08-26T04:03:31.409Z,15.20
2017-08-26T04:06:00.343Z,15.20
2017-08-26T04:08:29.330Z,15.30
2017-08-26T04:10:58.306Z,15.30
2017-08-26T04:13:27.264Z,15.40
2017-08-26T04:15:56.315Z,15.50
2017-08-26T04:18:25.482Z,15.40
2017-08-26T04:20:54.697Z,15.40
2017-08-26T04:23:23.645Z,15.40
2017-08-26T04:25:52.615Z,15.40
2017-08-26T04:28:21.577Z,15.30
2017-08-26T04:30:50.573Z,15.30
2017-08-26T04:33:19.518Z,15.30
2017-08-26T04:35:48.503Z,15.30
2017-08-26T04:38:17.445Z,15.30
2017-08-26T04:40:46.442Z,15.20
2017-08-26T04:43:15.406Z,15.30
2017-08-26T04:45:44.382Z,15.10
2017-08-26T04:48:13.369Z,15.20
2017-08-26T04:50:42.395Z,15.20
2017-08-26T04:53:12.255Z,15.20
2017-08-26T04:55:41.247Z,15.30
2017-08-26T04:58:10.567Z,15.20
2017-08-26T05:00:39.557Z,15.30
2017-08-26T05:03:08.518Z,15.30
2017-08-26T05:05:37.503Z,15.30
2017-08-26T05:08:06.484Z,15.40
2017-08-26T05:10:35.442Z,15.40
2017-08-26T05:13:04.414Z,15.40
2017-08-26T05:15:33.397Z,15.40
2017-08-26T05:18:02.366Z,15.30
2017-08-26T05:20:31.444Z,15.40
2017-08-26T05:23:16.574Z,15.40
2017-08-26T05:25:45.549Z,15.50
2017-08-26T05:28:14.509Z,15.50
2017-08-26T05:30:43.525Z,15.60
2017-08-26T05:33:12.494Z,15.60
2017-08-26T05:35:41.480Z,15.80
2017-08-26T05:38:10.925Z,15.80
2017-08-26T05:40:39.919Z,15.90
2017-08-26T05:43:08.868Z,15.80
2017-08-26T05:45:37.962Z,15.90
2017-08-26T05:48:06.922Z,15.90
2017-08-26T05:50:35.890Z,15.90
2017-08-26T05:53:04.871Z,15.80
2017-08-26T05:55:33.927Z,15.90
2017-08-26T05:58:03.021Z,15.90
2017-08-26T06:00:31.983Z,16.10
2017-08-26T06:03:00.975Z,16.20
2017-08-26T06:05:29.938Z,16.40
2017-08-26T06:07:58.934Z,16.30
2017-08-26T06:10:27.889Z,16.30
2017-08-26T06:12:56.882Z,16.40
2017-08-26T06:15:25.852Z,16.50
2017-08-26T06:17:54.842Z,16.70
2017-08-26T06:20:23.808Z,16.70
2017-08-26T06:22:52.799Z,16.90
2017-08-26T06:25:21.830Z,17.10
2017-08-26T06:27:50.957Z,17.30
2017-08-26T06:30:19.916Z,17.40
2017-08-26T06:32:48.905Z,17.40
2017-08-26T06:35:17.854Z,17.40
2017-08-26T06:37:47.353Z,17.40
2017-08-26T06:40:16.325Z,17.50
2017-08-26T06:42:45.318Z,17.60
2017-08-26T06:45:14.708Z,17.70
2017-08-26T06:47:44.455Z,17.60
2017-08-26T06:50:13.404Z,17.60
2017-08-26T06:52:42.492Z,17.80
2017-08-26T06:55:11.441Z,18.00
2017-08-26T06:57:40.449Z,18.10
2017-08-26T07:00:09.389Z,18.40
2017-08-26T07:02:38.369Z,18.30
2017-08-26T07:05:07.365Z,18.60
2017-08-26T07:07:36.348Z,18.60
2017-08-26T07:10:05.336Z,18.70
2017-08-26T07:12:34.316Z,18.70
2017-08-26T07:15:03.282Z,18.80
2017-08-26T07:17:32.242Z,18.90
2017-08-26T07:20:01.238Z,19.00
2017-08-26T07:22:30.189Z,19.10
2017-08-26T07:24:59.302Z,19.20
2017-08-26T07:27:29.026Z,19.40
2017-08-26T07:29:58.023Z,19.40
2017-08-26T07:32:26.991Z,19.40
2017-08-26T07:34:56.172Z,19.40
2017-08-26T07:37:25.250Z,19.30
2017-08-26T07:39:54.242Z,18.60
2017-08-26T07:42:23.230Z,19.50
2017-08-26T07:44:52.192Z,19.70
2017-08-26T07:47:21.145Z,19.90
2017-08-26T07:49:50.902Z,19.90
2017-08-26T07:52:20.783Z,19.80
2017-08-26T07:54:49.751Z,19.90
2017-08-26T07:57:18.717Z,19.90
2017-08-26T07:59:47.674Z,19.90
2017-08-26T08:02:16.650Z,20.10
2017-08-26T08:04:45.621Z,20.40
2017-08-26T08:07:15.358Z,20.50
2017-08-26T08:09:44.314Z,20.70
2017-08-26T08:12:13.284Z,20.80
2017-08-26T08:14:42.577Z,20.70
2017-08-26T08:17:11.529Z,20.80
2017-08-26T08:19:40.725Z,20.80
2017-08-26T08:22:09.703Z,20.70
2017-08-26T08:24:38.648Z,20.90
2017-08-26T08:27:07.625Z,20.80
2017-08-26T08:29:36.576Z,21.00
2017-08-26T08:32:05.561Z,21.00
2017-08-26T08:34:34.521Z,21.10
2017-08-26T08:37:03.565Z,21.30
2017-08-26T08:39:32.529Z,21.50
2017-08-26T08:42:01.496Z,21.50
2017-08-26T08:44:30.446Z,21.60
2017-08-26T08:46:59.420Z,21.60
2017-08-26T08:49:28.375Z,21.50
2017-08-26T08:51:57.390Z,21.60
2017-08-26T08:54:26.509Z,22.00
2017-08-26T08:56:55.491Z,22.20
2017-08-26T08:59:24.468Z,22.20
2017-08-26T09:01:53.433Z,22.30
2017-08-26T09:04:22.452Z,22.30
2017-08-26T09:06:51.446Z,22.20
2017-08-26T09:09:20.405Z,22.20
2017-08-26T09:11:49.393Z,22.30
2017-08-26T09:14:18.373Z,22.30
2017-08-26T09:16:47.492Z,22.30
2017-08-26T09:19:16.474Z,22.40
2017-08-26T09:21:45.421Z,22.60
2017-08-26T09:24:15.982Z,22.70
2017-08-26T09:26:44.954Z,22.90
2017-08-26T09:29:13.930Z,22.90
2017-08-26T09:31:42.884Z,23.10
2017-08-26T09:34:11.871Z,23.40
2017-08-26T09:36:40.931Z,23.50
2017-08-26T09:39:09.911Z,23.60
2017-08-26T09:41:38.852Z,23.80
2017-08-26T09:44:07.839Z,23.70
2017-08-26T09:46:36.782Z,23.70
2017-08-26T09:49:05.780Z,23.80
2017-08-26T09:51:34.753Z,23.90
2017-08-26T09:54:04.652Z,23.90
2017-08-26T09:56:33.602Z,23.60
2017-08-26T09:59:02.642Z,23.60
2017-08-26T10:01:31.667Z,23.60
2017-08-26T10:04:00.651Z,23.50
2017-08-26T10:06:29.639Z,23.50
2017-08-26T10:08:59.359Z,23.60
2017-08-26T10:11:28.304Z,23.60
2017-08-26T10:13:57.285Z,24.00
2017-08-26T10:16:26.425Z,24.50
2017-08-26T10:18:55.394Z,24.80
2017-08-26T10:21:24.345Z,25.30
2017-08-26T10:23:53.320Z,25.20
2017-08-26T10:26:22.351Z,25.60
2017-08-26T10:28:51.320Z,25.20
2017-08-26T10:31:20.312Z,25.10
2017-08-26T10:33:49.265Z,25.10
2017-08-26T10:36:18.243Z,25.30
2017-08-26T10:38:47.233Z,25.40
2017-08-26T10:41:16.580Z,25.30
2017-08-26T10:43:45.866Z,25.30
2017-08-26T10:46:15.012Z,25.60
2017-08-26T10:48:44.002Z,25.90
2017-08-26T10:51:12.960Z,26.20
2017-08-26T10:53:41.955Z,26.40
2017-08-26T10:56:11.074Z,26.20
2017-08-26T10:58:40.198Z,26.10
2017-08-26T11:01:09.175Z,26.10
2017-08-26T11:03:38.128Z,25.90
2017-08-26T11:06:07.244Z,26.00
2017-08-26T11:08:36.198Z,25.80
2017-08-26T11:11:05.195Z,26.10
2017-08-26T11:13:34.168Z,26.30
2017-08-26T11:16:03.157Z,26.40
2017-08-26T11:18:32.140Z,26.80
2017-08-26T11:21:01.138Z,27.40
2017-08-26T11:23:30.102Z,28.10
2017-08-26T11:25:59.068Z,28.30
2017-08-26T11:28:28.042Z,28.60
2017-08-26T11:30:57.142Z,28.70
2017-08-26T11:33:26.375Z,29.00
2017-08-26T11:35:55.334Z,29.10
2017-08-26T11:38:24.433Z,29.40
2017-08-26T11:40:53.414Z,29.50
2017-08-26T11:43:23.169Z,29.30
2017-08-26T11:45:52.198Z,29.60
2017-08-26T11:48:21.177Z,29.50
2017-08-26T11:50:50.166Z,29.70
2017-08-26T11:53:19.779Z,30.20
2017-08-26T11:55:48.761Z,30.50
2017-08-26T11:58:17.958Z,30.70
2017-08-26T12:00:46.959Z,30.80
2017-08-26T12:03:16.282Z,31.30
2017-08-26T12:05:45.951Z,31.50
2017-08-26T12:08:14.904Z,32.00
2017-08-26T12:10:43.890Z,32.20
2017-08-26T12:13:13.668Z,32.20
2017-08-26T12:15:42.673Z,32.10
2017-08-26T12:18:11.742Z,32.10
2017-08-26T12:20:40.716Z,31.30
2017-08-26T12:23:09.701Z,31.40
2017-08-26T12:25:38.723Z,32.00
2017-08-26T12:28:07.748Z,32.00
2017-08-26T12:30:36.814Z,31.50
2017-08-26T12:33:05.901Z,31.40
2017-08-26T12:35:34.872Z,31.60
2017-08-26T12:38:04.764Z,32.60
2017-08-26T12:40:33.733Z,33.10
2017-08-26T12:43:04.044Z,33.10
2017-08-26T12:45:33.250Z,32.30
2017-08-26T12:48:02.207Z,31.80
2017-08-26T12:50:31.175Z,30.80
2017-08-26T12:53:00.144Z,29.90
2017-08-26T12:55:29.124Z,29.40
2017-08-26T12:57:58.119Z,28.50
2017-08-26T13:00:27.282Z,28.50
2017-08-26T13:02:56.307Z,29.30
2017-08-26T13:05:25.420Z,29.80
2017-08-26T13:07:55.378Z,30.50
2017-08-26T13:10:24.358Z,31.40
2017-08-26T13:12:53.329Z,31.40
2017-08-26T13:15:22.443Z,31.70
2017-08-26T13:17:51.399Z,31.60
2017-08-26T13:20:20.388Z,31.20
2017-08-26T13:22:49.340Z,31.30
2017-08-26T13:25:18.339Z,32.30
2017-08-26T13:27:48.035Z,33.90
2017-08-26T13:30:17.026Z,33.90
2017-08-26T13:32:45.978Z,34.40
2017-08-26T13:35:15.039Z,33.50
2017-08-26T13:37:44.016Z,32.60
2017-08-26T13:40:12.982Z,31.60
2017-08-26T13:42:43.196Z,29.50
2017-08-26T13:45:12.201Z,29.50
2017-08-26T13:47:41.179Z,29.80
2017-08-26T13:50:10.221Z,31.60
2017-08-26T13:52:39.198Z,33.20
2017-08-26T13:55:08.154Z,33.70
2017-08-26T13:57:37.143Z,33.20
2017-08-26T14:00:06.115Z,32.50
2017-08-26T14:02:36.780Z,31.60
2017-08-26T14:05:07.502Z,30.60
2017-08-26T14:07:36.489Z,30.00
2017-08-26T14:10:05.507Z,28.80
2017-08-26T14:12:34.683Z,28.40
2017-08-26T14:15:03.896Z,28.10
2017-08-26T14:17:32.900Z,27.80
2017-08-26T14:20:01.870Z,27.30
2017-08-26T14:22:30.885Z,26.90
2017-08-26T14:24:59.824Z,26.70
2017-08-26T14:27:28.806Z,26.70
2017-08-26T14:29:58.091Z,26.70
2017-08-26T14:32:27.096Z,26.50
2017-08-26T14:34:56.336Z,26.40
2017-08-26T14:37:25.445Z,26.20
2017-08-26T14:39:54.397Z,25.50
2017-08-26T14:42:23.399Z,25.40
2017-08-26T14:44:52.433Z,25.30
2017-08-26T14:47:21.416Z,25.30
2017-08-26T14:49:50.407Z,25.30
2017-08-26T14:52:21.374Z,25.60
2017-08-26T14:54:52.556Z,25.90
2017-08-26T14:57:21.583Z,26.30
2017-08-26T14:59:50.530Z,27.00
2017-08-26T15:02:21.459Z,27.10
2017-08-26T15:04:50.481Z,27.00
2017-08-26T15:07:19.436Z,26.80
2017-08-26T15:09:48.405Z,27.20
2017-08-26T15:12:17.493Z,27.20
2017-08-26T15:14:46.428Z,27.00
2017-08-26T15:17:15.478Z,27.20
2017-08-26T15:19:44.512Z,27.50
2017-08-26T15:22:13.473Z,27.30
2017-08-26T15:24:42.447Z,27.20
2017-08-26T15:27:11.393Z,27.20
2017-08-26T15:29:40.367Z,27.10
2017-08-26T15:32:09.313Z,27.00
2017-08-26T15:34:38.302Z,27.00
2017-08-26T15:37:07.246Z,27.10
2017-08-26T15:39:36.306Z,26.90
2017-08-26T15:42:05.282Z,26.60
2017-08-26T15:44:34.267Z,26.10
2017-08-26T15:47:03.234Z,25.80
2017-08-26T15:49:32.196Z,25.90
2017-08-26T15:52:01.146Z,25.90
2017-08-26T15:54:30.108Z,26.30
2017-08-26T15:56:59.082Z,26.50
2017-08-26T15:59:28.066Z,26.40
2017-08-26T16:01:57.012Z,26.50
2017-08-26T16:04:26.312Z,26.20
2017-08-26T16:06:55.354Z,26.20
2017-08-26T16:09:24.333Z,26.00
2017-08-26T16:11:53.315Z,25.90
2017-08-26T16:14:22.301Z,25.50
2017-08-26T16:16:51.459Z,25.20
2017-08-26T16:19:20.439Z,24.90
2017-08-26T16:21:49.484Z,24.80
2017-08-26T16:24:18.434Z,24.50
2017-08-26T16:26:47.377Z,24.60
2017-08-26T16:29:16.340Z,24.60
2017-08-26T16:31:45.287Z,24.60
2017-08-26T16:34:14.269Z,24.60
2017-08-26T16:36:43.233Z,24.60
2017-08-26T16:39:12.314Z,24.60
2017-08-26T16:41:41.438Z,24.60
2017-08-26T16:44:10.628Z,24.70
2017-08-26T16:46:39.592Z,24.70
2017-08-26T16:49:08.542Z,24.60
2017-08-26T16:51:37.600Z,24.60
2017-08-26T16:54:06.646Z,24.60
2017-08-26T16:56:35.624Z,24.50
2017-08-26T16:59:04.585Z,24.60
2017-08-26T17:01:34.343Z,24.40
2017-08-26T17:04:03.326Z,24.40
2017-08-26T17:06:32.290Z,24.40
2017-08-26T17:09:01.294Z,24.50
2017-08-26T17:11:30.369Z,24.60
2017-08-26T17:13:59.348Z,24.70
2017-08-26T17:16:28.332Z,24.80
2017-08-26T17:18:57.296Z,24.70
2017-08-26T17:21:26.259Z,24.80
2017-08-26T17:23:55.233Z,24.80
2017-08-26T17:26:24.186Z,24.70
2017-08-26T17:28:53.155Z,24.80
2017-08-26T17:31:22.148Z,24.70
2017-08-26T17:33:51.133Z,24.50
2017-08-26T17:36:20.085Z,24.40
2017-08-26T17:38:49.063Z,24.50
2017-08-26T17:41:18.027Z,24.30
2017-08-26T17:43:47.393Z,24.20
2017-08-26T17:46:16.475Z,24.00
2017-08-26T17:48:45.482Z,23.70
2017-08-26T17:51:14.543Z,23.50
2017-08-26T17:53:44.298Z,23.40
2017-08-26T17:56:13.267Z,23.40
2017-08-26T17:58:42.220Z,23.30
2017-08-26T18:01:11.201Z,23.20
2017-08-26T18:03:40.230Z,23.10
2017-08-26T18:06:09.203Z,23.10
2017-08-26T18:08:38.180Z,23.10
2017-08-26T18:11:07.181Z,22.90
2017-08-26T18:13:36.414Z,22.80
2017-08-26T18:16:05.406Z,22.70
2017-08-26T18:18:34.348Z,22.70
2017-08-26T18:21:03.360Z,22.50
2017-08-26T18:23:32.371Z,22.50
2017-08-26T18:26:01.333Z,22.40
2017-08-26T18:28:30.286Z,22.40
2017-08-26T18:30:59.290Z,22.40
2017-08-26T18:33:28.257Z,22.50
2017-08-26T18:35:57.244Z,22.30
2017-08-26T18:38:26.208Z,22.30
2017-08-26T18:40:55.970Z,22.30
2017-08-26T18:43:24.948Z,22.30
2017-08-26T18:45:54.016Z,22.30
2017-08-26T18:48:23.490Z,22.30
2017-08-26T18:50:52.552Z,22.30
2017-08-26T18:53:21.506Z,22.00
2017-08-26T18:55:50.566Z,21.90
2017-08-26T18:58:19.525Z,21.90
2017-08-26T19:00:48.587Z,21.70
2017-08-26T19:03:18.317Z,21.50
2017-08-26T19:05:47.268Z,21.50
2017-08-26T19:08:17.005Z,21.30
2017-08-26T19:10:45.978Z,21.30
2017-08-26T19:13:14.949Z,21.10
2017-08-26T19:15:43.964Z,21.20
2017-08-26T19:18:13.946Z,21.20
2017-08-26T19:20:44.142Z,21.20
2017-08-26T19:23:13.108Z,21.00
2017-08-26T19:25:42.138Z,20.90
2017-08-26T19:28:11.104Z,20.90
2017-08-26T19:30:40.123Z,20.80
2017-08-26T19:33:09.116Z,20.80
2017-08-26T19:35:38.136Z,20.80
2017-08-26T19:38:07.093Z,20.70
2017-08-26T19:40:36.142Z,20.60
2017-08-26T19:43:05.198Z,20.60
2017-08-26T19:45:34.232Z,20.80
2017-08-26T19:48:03.180Z,20.70
2017-08-26T19:50:32.427Z,20.50
2017-08-26T19:53:01.383Z,20.40
2017-08-26T19:55:30.343Z,20.50
2017-08-26T19:57:59.317Z,20.40
2017-08-26T20:00:28.276Z,20.30
2017-08-26T20:02:57.250Z,20.30
2017-08-26T20:05:26.255Z,20.30
2017-08-26T20:07:55.420Z,20.30
2017-08-26T20:10:24.410Z,20.30
2017-08-26T20:12:53.538Z,20.50
2017-08-26T20:15:22.487Z,20.40
2017-08-26T20:17:51.461Z,20.40
2017-08-26T20:20:20.441Z,20.20
2017-08-26T20:22:49.433Z,20.20
2017-08-26T20:25:18.391Z,20.20
2017-08-26T20:27:47.380Z,20.30
2017-08-26T20:30:16.680Z,20.10
2017-08-26T20:32:45.676Z,20.00
2017-08-26T20:35:14.713Z,20.00
2017-08-26T20:37:43.788Z,20.00
2017-08-26T20:40:12.794Z,20.00
2017-08-26T20:42:41.926Z,20.00
2017-08-26T20:45:10.872Z,20.10
2017-08-26T20:47:39.906Z,20.10
2017-08-26T20:50:08.890Z,20.00
2017-08-26T20:52:37.877Z,20.10
2017-08-26T20:55:06.839Z,20.00
2017-08-26T20:57:35.831Z,19.80
2017-08-26T21:00:05.568Z,19.90
2017-08-26T21:02:34.570Z,19.90
2017-08-26T21:05:03.532Z,20.00
2017-08-26T21:07:32.614Z,19.90
2017-08-26T21:10:01.569Z,19.80
2017-08-26T21:12:30.545Z,19.70
2017-08-26T21:14:59.530Z,19.60
2017-08-26T21:17:28.592Z,19.70
2017-08-26T21:19:57.712Z,19.60
2017-08-26T21:22:26.772Z,19.70
2017-08-26T21:24:55.823Z,19.70
2017-08-26T21:27:25.159Z,19.60
2017-08-26T21:29:55.131Z,19.60
2017-08-26T21:32:28.805Z,19.50
2017-08-26T21:34:57.795Z,19.40
2017-08-26T21:37:27.110Z,19.50
2017-08-26T21:39:57.249Z,19.40
2017-08-26T21:42:26.515Z,19.40
2017-08-26T21:44:55.502Z,19.40
2017-08-26T21:47:24.615Z,19.40
2017-08-26T21:49:53.984Z,19.40
2017-08-26T21:52:22.929Z,19.20
2017-08-26T21:54:51.901Z,19.20
2017-08-26T21:57:21.060Z,19.20
2017-08-26T21:59:50.050Z,19.20
2017-08-26T22:02:19.868Z,19.20
2017-08-26T22:04:48.851Z,19.10
2017-08-26T22:07:17.967Z,19.10
2017-08-26T22:09:46.971Z,19.20
2017-08-26T22:12:16.697Z,19.10
2017-08-26T22:14:45.750Z,19.10
2017-08-26T22:17:14.725Z,19.00
2017-08-26T22:19:43.684Z,19.00
2017-08-26T22:22:12.673Z,18.90
2017-08-26T22:24:41.641Z,18.80
2017-08-26T22:27:10.637Z,18.80
2017-08-26T22:29:39.704Z,18.80
2017-08-26T22:32:08.739Z,18.90
2017-08-26T22:34:37.698Z,18.80
2017-08-26T22:37:06.741Z,18.60
2017-08-26T22:39:35.824Z,18.60
2017-08-26T22:42:04.821Z,18.60
2017-08-26T22:44:33.804Z,18.40
2017-08-26T22:47:03.365Z,18.30
2017-08-26T22:49:33.305Z,18.20
2017-08-26T22:52:02.299Z,18.20
2017-08-26T22:54:31.308Z,18.10
2017-08-26T22:57:00.897Z,18.10
2017-08-26T22:59:29.881Z,17.90
2017-08-26T23:01:58.861Z,17.90
2017-08-26T23:04:27.860Z,17.90
2017-08-26T23:06:56.909Z,17.80
2017-08-26T23:09:25.935Z,17.80
2017-08-26T23:11:54.908Z,17.90
2017-08-26T23:14:24.006Z,17.80
2017-08-26T23:16:53.021Z,17.80
2017-08-26T23:19:22.006Z,17.80
2017-08-26T23:21:51.755Z,17.70
2017-08-26T23:24:21.353Z,17.70
2017-08-26T23:26:50.386Z,17.50
2017-08-26T23:29:19.351Z,17.50
2017-08-26T23:31:48.296Z,17.40
2017-08-26T23:34:17.297Z,17.30
2017-08-26T23:36:47.016Z,17.40
2017-08-26T23:39:16.123Z,17.30
2017-08-26T23:41:45.122Z,17.40
2017-08-26T23:44:14.109Z,17.30
2017-08-26T23:46:43.091Z,17.40
2017-08-26T23:49:12.096Z,17.30
2017-08-26T23:51:41.470Z,17.30
2017-08-26T23:54:10.615Z,17.20
2017-08-26T23:56:39.598Z,17.30
2017-08-26T23:59:08.552Z,17.20
